Time;durP1;ratioP1;P1;durP2;ratioP2;P2;SDS_P1;SDS_P2;PMS_P1;PMS_P2;Temp;Humidity;BMP_temperature;BMP_pressure;BME280_temperature;BME280_humidity;BME280_pressure;Samples;Min_cycle;Max_cycle;Signal;HPM_P1;HPM_P2
2023/02/06 04:27:13;;;;;;;16.83;2.42;;;12.20;61.60;;;;;;4835526;29;20081;-70
2023/02/06 04:29:39;;;;;;;17.45;3.42;;;12.20;61.60;;;;;;4842537;29;20133;-73
2023/02/06 04:32:05;;;;;;;14.20;3.45;;;12.10;61.60;;;;;;4845433;29;20200;-71
2023/02/06 04:34:35;;;;;;;16.15;3.08;;;12.10;61.50;;;;;;4848153;29;20145;-73
2023/02/06 04:37:01;;;;;;;13.55;3.30;;;12.10;61.60;;;;;;4842851;29;20054;-73
2023/02/06 04:39:28;;;;;;;9.63;2.08;;;12.10;61.60;;;;;;4844429;29;20045;-73
2023/02/06 04:41:54;;;;;;;10.45;1.83;;;12.10;61.40;;;;;;4846307;29;20373;-72
2023/02/06 04:44:21;;;;;;;14.10;2.05;;;12.10;61.40;;;;;;4844525;29;20082;-75
2023/02/06 04:46:47;;;;;;;17.30;3.40;;;12.10;61.40;;;;;;4844782;29;20150;-71
2023/02/06 04:49:14;;;;;;;10.50;2.05;;;12.10;61.40;;;;;;4844682;29;20092;-72
2023/02/06 04:51:40;;;;;;;11.18;2.75;;;12.10;61.40;;;;;;4828565;29;20046;-75
2023/02/06 04:54:06;;;;;;;9.50;1.88;;;12.10;61.50;;;;;;4845911;29;20048;-72
2023/02/06 04:56:32;;;;;;;9.02;1.70;;;12.10;61.60;;;;;;4844802;29;20042;-74
2023/02/06 04:58:58;;;;;;;12.73;2.97;;;12.00;61.60;;;;;;4844345;29;20411;-71
2023/02/06 05:01:24;;;;;;;13.38;2.33;;;12.00;61.60;;;;;;4844463;29;20057;-72
2023/02/06 05:03:50;;;;;;;14.70;2.53;;;12.00;61.60;;;;;;4845397;29;20050;-72
2023/02/06 05:06:16;;;;;;;13.30;2.25;;;12.10;61.90;;;;;;4842988;29;20081;-71
2023/02/06 05:08:41;;;;;;;12.23;2.50;;;12.00;62.20;;;;;;4842584;29;20053;-73
2023/02/06 05:11:07;;;;;;;9.55;1.85;;;12.10;63.20;;;;;;4843077;29;20045;-72
2023/02/06 05:13:33;;;;;;;9.13;1.88;;;12.20;63.20;;;;;;4843699;29;20050;-74
2023/02/06 05:16:12;;;;;;;13.18;2.10;;;12.30;63.40;;;;;;4844741;29;20446;-72
2023/02/06 05:18:38;;;;;;;20.77;3.22;;;12.60;63.50;;;;;;4851555;29;20137;-75
2023/02/06 05:21:04;;;;;;;13.95;2.65;;;12.70;64.00;;;;;;4862253;29;20116;-74
2023/02/06 05:23:31;;;;;;;13.55;1.70;;;12.90;63.70;;;;;;4862428;29;20117;-73
2023/02/06 05:25:58;;;;;;;13.35;2.45;;;13.00;63.40;;;;;;4848414;29;20069;-73
2023/02/06 05:28:24;;;;;;;16.60;2.38;;;13.30;63.10;;;;;;4831127;29;20057;-71
2023/02/06 05:30:49;;;;;;;13.05;2.28;;;13.40;62.90;;;;;;4844074;29;20365;-71
2023/02/06 05:33:15;;;;;;;18.17;2.50;;;13.50;62.80;;;;;;4850607;29;20049;-72
2023/02/06 05:35:41;;;;;;;13.55;2.28;;;13.60;62.60;;;;;;4862740;29;20050;-77
2023/02/06 05:38:07;;;;;;;12.57;2.47;;;13.70;63.20;;;;;;4852530;29;20049;-72
2023/02/06 05:40:33;;;;;;;15.88;2.08;;;13.80;63.70;;;;;;4862858;29;20053;-76
2023/02/06 05:42:59;;;;;;;14.30;3.00;;;13.90;63.70;;;;;;4860914;29;20468;-73
2023/02/06 05:45:25;;;;;;;19.00;2.78;;;13.90;64.20;;;;;;4844534;29;20054;-73
2023/02/06 05:47:52;;;;;;;18.95;3.28;;;14.00;64.30;;;;;;4859320;29;20362;-73
2023/02/06 05:50:18;;;;;;;24.40;3.00;;;14.10;64.60;;;;;;4861292;29;20124;-75
2023/02/06 05:52:44;;;;;;;16.67;2.58;;;14.20;65.20;;;;;;4854184;29;20410;-73
2023/02/06 05:55:09;;;;;;;21.60;2.97;;;14.20;65.40;;;;;;4855039;29;20409;-74
2023/02/06 05:57:35;;;;;;;26.17;3.50;;;14.40;65.80;;;;;;4843360;29;20054;-71
2023/02/06 06:00:01;;;;;;;13.82;2.42;;;14.40;66.10;;;;;;4843874;29;20377;-74
2023/02/06 06:02:27;;;;;;;16.23;3.10;;;14.50;66.20;;;;;;4844039;29;20416;-72
2023/02/06 06:04:52;;;;;;;14.73;2.85;;;14.60;66.30;;;;;;4851847;29;20034;-72
2023/02/06 06:07:18;;;;;;;17.05;2.38;;;14.70;66.40;;;;;;4827946;29;20131;-72
2023/02/06 06:09:44;;;;;;;30.80;3.38;;;14.80;66.70;;;;;;4855171;29;20120;-77
2023/02/06 06:12:10;;;;;;;18.08;3.22;;;14.90;67.00;;;;;;4844075;29;20053;-77
2023/02/06 06:14:36;;;;;;;28.10;4.38;;;14.90;67.20;;;;;;4843149;29;20124;-76
2023/02/06 06:17:01;;;;;;;16.48;2.97;;;15.00;66.70;;;;;;4830144;29;20124;-77
2023/02/06 06:19:27;;;;;;;16.75;2.67;;;15.10;66.10;;;;;;4845688;29;20053;-75
2023/02/06 06:21:53;;;;;;;19.42;3.58;;;15.10;65.60;;;;;;4843530;29;20077;-76
2023/02/06 06:24:18;;;;;;;20.20;3.40;;;15.20;64.90;;;;;;4850521;29;20106;-71
2023/02/06 06:26:44;;;;;;;18.20;3.60;;;15.30;64.30;;;;;;4846510;29;20100;-71
2023/02/06 06:29:10;;;;;;;19.95;2.95;;;15.30;63.80;;;;;;4829289;29;20051;-70
2023/02/06 06:31:35;;;;;;;16.27;2.75;;;15.30;63.60;;;;;;4828616;29;20137;-75
2023/02/06 06:34:07;;;;;;;23.23;3.47;;;15.30;63.50;;;;;;4832131;29;20414;-70
2023/02/06 06:36:33;;;;;;;21.48;3.95;;;15.40;62.50;;;;;;4847242;29;20053;-77
2023/02/06 06:38:59;;;;;;;25.92;4.07;;;15.40;63.50;;;;;;4847477;29;20374;-73
2023/02/06 06:41:25;;;;;;;20.17;4.13;;;15.40;63.70;;;;;;4846467;29;20098;-73
2023/02/06 06:43:55;;;;;;;12.77;3.60;;;15.40;63.70;;;;;;4846889;29;20089;-72
2023/02/06 06:46:21;;;;;;;18.13;3.30;;;15.40;64.00;;;;;;4847185;29;20113;-78
2023/02/06 06:48:46;;;;;;;19.85;3.40;;;15.50;64.20;;;;;;4845980;29;20394;-73
2023/02/06 06:51:12;;;;;;;24.42;4.20;;;15.50;64.50;;;;;;4855948;29;20354;-74
2023/02/06 06:53:38;;;;;;;39.03;5.93;;;15.50;64.60;;;;;;4847235;29;20111;-73
2023/02/06 06:56:09;;;;;;;24.35;4.85;;;15.60;64.70;;;;;;4847315;29;20198;-77
2023/02/06 06:58:34;;;;;;;23.25;5.13;;;15.70;64.90;;;;;;4830774;29;20069;-73
2023/02/06 07:01:00;;;;;;;23.40;4.90;;;15.70;64.70;;;;;;4830103;29;20058;-75
2023/02/06 07:03:26;;;;;;;33.60;5.97;;;15.70;64.60;;;;;;4846719;29;20085;-75
2023/02/06 07:05:52;;;;;;;42.70;5.43;;;15.70;64.70;;;;;;4847160;29;20156;-74
2023/02/06 07:08:18;;;;;;;25.27;4.47;;;15.70;64.70;;;;;;4846536;29;20118;-76
2023/02/06 07:10:44;;;;;;;19.90;3.88;;;15.70;63.20;;;;;;4846705;29;20093;-77
2023/02/06 07:13:10;;;;;;;24.40;4.18;;;15.60;61.20;;;;;;4829138;29;20083;-75
2023/02/06 07:15:35;;;;;;;22.30;3.83;;;15.60;60.60;;;;;;4846193;29;20062;-75
2023/02/06 07:18:01;;;;;;;24.40;3.53;;;15.60;60.60;;;;;;4846389;29;20445;-75
2023/02/06 07:20:27;;;;;;;19.98;3.92;;;15.50;60.60;;;;;;4846308;29;20077;-75
2023/02/06 07:22:52;;;;;;;20.45;3.70;;;15.50;60.70;;;;;;4846923;29;20050;-75
2023/02/06 07:25:19;;;;;;;16.52;3.00;;;15.40;60.90;;;;;;4846808;29;20053;-75
2023/02/06 07:27:46;;;;;;;19.80;3.67;;;15.40;61.00;;;;;;4845562;29;20057;-74
2023/02/06 07:30:13;;;;;;;17.65;3.45;;;15.40;61.20;;;;;;4830461;29;20049;-74
2023/02/06 07:32:39;;;;;;;12.55;3.05;;;15.40;61.40;;;;;;4845966;29;20069;-75
2023/02/06 07:35:05;;;;;;;15.93;2.85;;;15.30;61.60;;;;;;4846354;29;20093;-74
2023/02/06 07:37:31;;;;;;;15.20;2.92;;;15.30;61.80;;;;;;4845849;29;20052;-74
2023/02/06 07:39:58;;;;;;;15.43;3.65;;;15.20;62.00;;;;;;4844827;29;20046;-74
2023/02/06 07:42:24;;;;;;;23.63;4.15;;;15.20;62.10;;;;;;4845312;29;20065;-75
2023/02/06 07:44:50;;;;;;;18.48;2.83;;;15.10;62.40;;;;;;4843679;29;20050;-75
2023/02/06 07:47:16;;;;;;;17.73;3.55;;;15.10;62.80;;;;;;4845667;29;20053;-76
2023/02/06 07:49:41;;;;;;;15.85;3.30;;;15.10;63.10;;;;;;4836533;29;20077;-76
2023/02/06 07:52:07;;;;;;;15.55;3.58;;;15.00;63.40;;;;;;4847473;29;20093;-73
2023/02/06 07:54:33;;;;;;;22.50;4.25;;;15.00;63.60;;;;;;4845861;29;20476;-77
2023/02/06 07:56:59;;;;;;;18.08;3.45;;;15.00;63.60;;;;;;4844769;29;20746;-74
2023/02/06 07:59:25;;;;;;;13.35;3.33;;;14.90;63.60;;;;;;4850177;29;20050;-72
2023/02/06 08:01:51;;;;;;;18.38;4.03;;;14.90;63.60;;;;;;4845289;29;20137;-72
2023/02/06 08:04:17;;;;;;;14.27;2.72;;;14.90;63.70;;;;;;4843969;29;20476;-73
2023/02/06 08:06:43;;;;;;;12.98;2.70;;;14.90;63.90;;;;;;4844860;29;20049;-72
2023/02/06 08:09:15;;;;;;;14.38;3.13;;;14.80;64.10;;;;;;4845730;29;20046;-72
2023/02/06 08:11:41;;;;;;;18.90;3.08;;;14.80;64.20;;;;;;4845194;29;20045;-73
2023/02/06 08:14:08;;;;;;;24.42;3.33;;;14.80;64.40;;;;;;4844835;29;20049;-72
2023/02/06 08:16:34;;;;;;;23.10;3.58;;;14.70;64.50;;;;;;4845336;29;20226;-72
2023/02/06 08:19:00;;;;;;;15.82;3.22;;;14.70;64.50;;;;;;4845706;29;20053;-72
2023/02/06 08:21:26;;;;;;;15.82;3.22;;;14.70;64.50;;;;;;4845602;29;20064;-72
2023/02/06 08:23:59;;;;;;;18.58;2.55;;;14.70;64.50;;;;;;4846262;29;20373;-72
2023/02/06 08:26:27;;;;;;;15.23;2.88;;;14.70;64.40;;;;;;4845275;29;20133;-71
2023/02/06 08:28:54;;;;;;;17.00;3.92;;;14.60;64.50;;;;;;4844998;29;20465;-71
2023/02/06 08:31:26;;;;;;;20.55;3.15;;;14.60;65.10;;;;;;4845152;29;20457;-72
2023/02/06 08:33:51;;;;;;;9.75;2.47;;;14.60;64.40;;;;;;4829423;29;20421;-74
2023/02/06 08:36:20;;;;;;;18.55;2.92;;;14.50;64.40;;;;;;4844630;29;20066;-72
2023/02/06 08:38:46;;;;;;;16.63;3.60;;;14.50;64.50;;;;;;4845259;29;20062;-72
2023/02/06 08:41:20;;;;;;;12.88;2.78;;;14.50;64.50;;;;;;4845205;29;20069;-72
2023/02/06 08:43:48;;;;;;;18.45;3.20;;;14.50;64.40;;;;;;4845408;29;20050;-72
2023/02/06 08:46:15;;;;;;;14.35;2.25;;;14.50;64.50;;;;;;4845753;29;20346;-72
2023/02/06 08:48:41;;;;;;;11.38;2.67;;;14.40;64.50;;;;;;4844893;29;20126;-72
2023/02/06 08:51:08;;;;;;;9.43;1.98;;;14.40;64.50;;;;;;4845269;29;20449;-73
2023/02/06 08:53:34;;;;;;;11.40;2.22;;;14.40;64.50;;;;;;4845342;29;20046;-72
2023/02/06 08:56:05;;;;;;;11.10;2.33;;;14.40;64.60;;;;;;4844626;29;20045;-72
2023/02/06 08:58:32;;;;;;;11.20;2.40;;;14.30;64.50;;;;;;4845499;29;20068;-73
2023/02/06 09:01:03;;;;;;;13.23;2.88;;;14.30;64.60;;;;;;4844923;29;20086;-72
2023/02/06 09:03:29;;;;;;;7.65;2.22;;;14.30;64.70;;;;;;4845282;29;20049;-72
2023/02/06 09:06:03;;;;;;;8.45;2.05;;;14.30;64.80;;;;;;4828694;29;20064;-72
2023/02/06 09:08:29;;;;;;;8.95;2.33;;;14.30;64.70;;;;;;4845116;29;20053;-72
2023/02/06 09:11:03;;;;;;;5.82;2.25;;;14.30;65.00;;;;;;4829200;29;20487;-72
2023/02/06 09:13:30;;;;;;;;;;;14.30;65.00;;;;;;4845058;29;20506;-73
2023/02/06 09:15:56;;;;;;;10.30;2.33;;;14.20;64.80;;;;;;4845375;29;20241;-72
2023/02/06 09:18:22;;;;;;;7.22;1.73;;;14.20;65.10;;;;;;4845425;29;20392;-72
2023/02/06 09:20:48;;;;;;;7.55;2.20;;;14.20;65.00;;;;;;4844744;29;20073;-73
2023/02/06 09:23:17;;;;;;;8.75;3.00;;;14.20;65.10;;;;;;4844409;29;20068;-72
2023/02/06 09:25:44;;;;;;;10.05;2.22;;;14.20;65.10;;;;;;4844008;29;20080;-73
2023/02/06 09:28:10;;;;;;;7.93;2.13;;;14.20;65.30;;;;;;4828855;29;20207;-73
2023/02/06 09:30:36;;;;;;;8.27;1.98;;;14.20;65.30;;;;;;4844668;29;20054;-73
2023/02/06 09:33:02;;;;;;;5.90;1.50;;;14.20;65.40;;;;;;4844728;29;20053;-72
2023/02/06 09:35:28;;;;;;;8.98;2.10;;;14.20;65.30;;;;;;4844479;29;20054;-72
2023/02/06 09:37:53;;;;;;;5.88;1.90;;;14.20;65.20;;;;;;4844148;29;20369;-72
2023/02/06 09:40:23;;;;;;;9.55;2.95;;;14.10;65.20;;;;;;4844017;29;20053;-72
2023/02/06 09:42:52;;;;;;;7.00;1.88;;;14.10;65.20;;;;;;4844885;29;20414;-72
2023/02/06 09:45:20;;;;;;;5.85;1.55;;;14.10;65.20;;;;;;4828443;29;20378;-73
2023/02/06 09:47:51;;;;;;;9.50;2.38;;;14.10;65.30;;;;;;4844438;29;20054;-72
2023/02/06 09:50:25;;;;;;;5.97;1.70;;;14.10;65.20;;;;;;4844355;29;20099;-73
2023/02/06 09:53:12;;;;;;;8.20;1.80;;;14.10;65.30;;;;;;4843872;29;20054;-73
2023/02/06 09:55:44;;;;;;;8.55;1.70;;;14.20;65.30;;;;;;4844267;29;20450;-73
2023/02/06 09:58:31;;;;;;;8.50;2.05;;;14.10;65.30;;;;;;4844471;29;20462;-73
2023/02/06 10:01:08;;;;;;;8.88;1.83;;;14.10;65.20;;;;;;4846365;29;20453;-72
2023/02/06 10:03:43;;;;;;;8.90;1.80;;;14.10;65.20;;;;;;4847558;29;20077;-72
2023/02/06 10:06:15;;;;;;;9.27;2.03;;;14.10;65.10;;;;;;4834272;29;20050;-72
2023/02/06 10:08:52;;;;;;;15.13;2.53;;;14.10;65.10;;;;;;4847185;29;20049;-69
2023/02/06 10:11:38;;;;;;;23.90;3.65;;;14.10;65.20;;;;;;4847613;29;20075;-73
2023/02/06 10:14:33;;;;;;;17.42;3.13;;;14.20;65.00;;;;;;4848057;29;20049;-73
2023/02/06 10:17:02;;;;;;;21.48;4.45;;;14.10;64.80;;;;;;4821856;29;20057;-76
2023/02/06 10:19:48;;;;;;;19.45;3.00;;;14.10;65.30;;;;;;4847641;29;20419;-74
2023/02/06 10:22:25;;;;;;;18.13;3.38;;;14.10;65.60;;;;;;4848257;29;20057;-75
2023/02/06 10:25:00;;;;;;;18.40;3.33;;;14.10;64.80;;;;;;4847212;29;20399;-71
2023/02/06 10:27:25;;;;;;;19.52;3.58;;;14.20;64.50;;;;;;4838185;29;20486;-72
2023/02/06 10:29:51;;;;;;;15.25;3.55;;;14.20;64.20;;;;;;4846765;29;20078;-73
2023/02/06 10:32:43;;;;;;;21.42;4.00;;;14.20;63.70;;;;;;4856257;29;20357;-72
2023/02/06 10:35:18;;;;;;;17.77;3.75;;;14.20;62.50;;;;;;4851838;29;20057;-74
2023/02/06 10:37:53;;;;;;;14.27;3.20;;;14.10;62.90;;;;;;4847427;29;20042;-74
2023/02/06 10:40:37;;;;;;;15.13;3.40;;;14.10;63.40;;;;;;4847730;29;20053;-74
2023/02/06 10:43:24;;;;;;;15.90;3.40;;;14.10;64.20;;;;;;4847272;29;20117;-74
2023/02/06 10:46:08;;;;;;;19.50;3.22;;;14.10;64.30;;;;;;4850146;29;20124;-77
2023/02/06 10:48:48;;;;;;;16.90;3.55;;;14.10;65.00;;;;;;4865940;29;20132;-74
2023/02/06 10:51:32;;;;;;;34.40;16.45;;;14.10;65.30;;;;;;4860185;29;20121;-75
2023/02/06 10:54:05;;;;;;;35.25;11.93;;;14.20;66.80;;;;;;4847245;29;20054;-77
2023/02/06 10:56:45;;;;;;;29.80;9.43;;;14.20;67.10;;;;;;4847240;29;20085;-75
2023/02/06 10:59:27;;;;;;;26.45;8.38;;;14.30;67.60;;;;;;4846533;29;20085;-76
2023/02/06 11:02:12;;;;;;;20.73;7.13;;;14.30;67.90;;;;;;4830663;29;20054;-75
2023/02/06 11:04:44;;;;;;;23.55;7.10;;;14.30;68.10;;;;;;4846964;29;20117;-76
2023/02/06 11:07:37;;;;;;;25.70;5.93;;;14.30;67.90;;;;;;4845993;29;20086;-77
2023/02/06 11:10:04;;;;;;;19.48;6.03;;;14.40;67.90;;;;;;4844970;29;20477;-75
2023/02/06 11:12:37;;;;;;;16.65;6.00;;;14.30;67.50;;;;;;4846269;29;20053;-76
2023/02/06 11:15:32;;;;;;;22.98;5.28;;;14.30;67.60;;;;;;4847045;29;20346;-77
2023/02/06 11:18:01;;;;;;;15.68;4.50;;;14.40;67.70;;;;;;4823512;29;20133;-75
2023/02/06 11:20:32;;;;;;;18.67;5.05;;;14.30;67.50;;;;;;4845779;29;20124;-75
2023/02/06 11:23:23;;;;;;;19.10;4.80;;;14.30;67.40;;;;;;4844619;29;20042;-75
2023/02/06 11:25:55;;;;;;;12.88;3.53;;;14.30;66.80;;;;;;4860144;29;20069;-75
2023/02/06 11:28:23;;;;;;;14.77;4.13;;;14.30;65.70;;;;;;4864894;29;20064;-75
2023/02/06 11:31:04;;;;;;;16.58;4.43;;;14.30;65.40;;;;;;4864823;29;20049;-74
2023/02/06 11:33:40;;;;;;;13.13;4.10;;;14.30;65.10;;;;;;4864877;29;20064;-77
2023/02/06 11:36:33;;;;;;;11.43;3.17;;;14.30;65.20;;;;;;4864966;29;20075;-78
2023/02/06 11:39:05;;;;;;;12.88;3.67;;;14.30;65.30;;;;;;4848767;29;20049;-74
2023/02/06 11:41:32;;;;;;;13.07;3.80;;;14.30;65.30;;;;;;4846205;29;20340;-75
2023/02/06 11:44:05;;;;;;;14.00;4.32;;;14.20;65.20;;;;;;4846828;29;20050;-74
2023/02/06 11:46:35;;;;;;;19.10;4.60;;;14.30;65.20;;;;;;4846494;29;20066;-75
2023/02/06 11:49:06;;;;;;;12.93;3.55;;;14.20;65.10;;;;;;4846323;29;20354;-75
2023/02/06 11:51:50;;;;;;;12.25;3.47;;;14.20;65.20;;;;;;4843597;29;20121;-74
2023/02/06 11:54:39;;;;;;;14.98;3.28;;;14.20;65.10;;;;;;4845529;29;20073;-76
2023/02/06 11:57:20;;;;;;;13.32;3.30;;;14.20;64.70;;;;;;4828235;29;20110;-73
2023/02/06 11:59:55;;;;;;;22.08;4.25;;;14.20;64.10;;;;;;4840855;29;20334;-71
2023/02/06 12:02:33;;;;;;;27.42;4.43;;;14.20;63.10;;;;;;4845524;29;20054;-69
2023/02/06 12:05:06;;;;;;;14.20;3.67;;;14.20;62.80;;;;;;4845997;29;20045;-71
2023/02/06 12:07:38;;;;;;;16.95;2.88;;;14.20;61.40;;;;;;4845595;29;20081;-75
2023/02/06 12:10:13;;;;;;;13.25;2.22;;;14.20;60.40;;;;;;4845268;29;20046;-69
2023/02/06 12:12:43;;;;;;;13.00;3.28;;;14.10;60.00;;;;;;4845790;29;20054;-73
2023/02/06 12:15:19;;;;;;;12.57;3.33;;;14.00;59.60;;;;;;4846011;29;20089;-72
2023/02/06 12:17:57;;;;;;;13.10;2.33;;;14.00;59.80;;;;;;4827583;29;20129;-70
2023/02/06 12:20:27;;;;;;;9.65;2.40;;;13.90;59.60;;;;;;4836016;29;20054;-71
2023/02/06 12:23:13;;;;;;;11.43;2.80;;;13.90;60.50;;;;;;4842945;29;20046;-70
2023/02/06 12:25:48;;;;;;;17.35;3.22;;;13.80;60.20;;;;;;4843779;29;20401;-69
2023/02/06 12:28:17;;;;;;;21.30;2.67;;;13.90;60.40;;;;;;4846234;29;20054;-68
2023/02/06 12:30:50;;;;;;;17.02;3.00;;;14.00;60.60;;;;;;4845782;29;20080;-69
2023/02/06 12:33:36;;;;;;;16.00;2.35;;;14.10;62.30;;;;;;4845247;29;20046;-69
2023/02/06 12:36:16;;;;;;;14.70;2.50;;;14.30;61.90;;;;;;4844994;29;20054;-69
2023/02/06 12:39:01;;;;;;;17.88;3.47;;;14.40;61.60;;;;;;4845081;29;20046;-77
2023/02/06 12:41:54;;;;;;;16.83;3.63;;;14.50;61.70;;;;;;4860991;29;20063;-76
2023/02/06 12:44:33;;;;;;;18.45;2.65;;;14.60;61.80;;;;;;4856140;29;20399;-75
2023/02/06 12:47:33;;;;;;;16.08;3.58;;;14.60;62.10;;;;;;4844822;29;20061;-75
2023/02/06 12:50:05;;;;;;;24.88;3.33;;;14.70;62.50;;;;;;4822370;29;20062;-74
2023/02/06 12:52:38;;;;;;;17.52;2.75;;;14.70;62.70;;;;;;4844505;29;20357;-73
2023/02/06 12:55:17;;;;;;;27.33;2.90;;;14.80;62.90;;;;;;4828834;29;20473;-72
2023/02/06 12:57:44;;;;;;;18.80;2.90;;;14.80;62.70;;;;;;4845166;29;20054;-73
2023/02/06 13:00:28;;;;;;;16.40;2.35;;;14.80;62.70;;;;;;4844874;29;20093;-73
2023/02/06 13:03:27;;;;;;;15.18;2.28;;;14.80;62.70;;;;;;4844973;29;20061;-74
2023/02/06 13:06:13;;;;;;;14.57;2.22;;;14.80;62.80;;;;;;4844956;29;20058;-73
2023/02/06 13:08:54;;;;;;;14.68;2.75;;;14.70;62.80;;;;;;4828308;29;20065;-73
2023/02/06 13:11:20;;;;;;;13.32;3.00;;;14.80;62.90;;;;;;4829086;29;20058;-75
2023/02/06 13:13:48;;;;;;;17.38;2.90;;;14.70;62.90;;;;;;4829255;29;20469;-73
2023/02/06 13:16:15;;;;;;;11.85;2.20;;;14.70;63.00;;;;;;4845490;29;20060;-73
2023/02/06 13:18:40;;;;;;;13.75;2.35;;;14.70;63.10;;;;;;4844845;29;20350;-73
2023/02/06 13:21:31;;;;;;;9.50;1.77;;;14.70;63.20;;;;;;4843925;29;20054;-75
2023/02/06 13:24:02;;;;;;;16.98;2.30;;;14.60;63.20;;;;;;4828733;29;20046;-74
2023/02/06 13:26:52;;;;;;;9.70;2.33;;;14.60;63.30;;;;;;4844650;29;20061;-74
2023/02/06 13:29:38;;;;;;;8.43;1.63;;;14.60;63.30;;;;;;4844630;29;20053;-74
2023/02/06 13:32:18;;;;;;;8.93;2.05;;;14.50;63.40;;;;;;4844455;29;20140;-74
2023/02/06 13:34:58;;;;;;;11.80;1.88;;;14.50;63.50;;;;;;4844739;29;20093;-75
2023/02/06 13:38:23;;;;;;;6.80;1.10;;;14.50;63.60;;;;;;4828691;29;20125;-74
2023/02/06 13:41:13;;;;;;;10.45;1.92;;;14.50;63.70;;;;;;4844181;29;20147;-74
2023/02/06 13:44:13;;;;;;;10.07;2.10;;;14.40;63.70;;;;;;4844032;29;20050;-74
2023/02/06 13:46:52;;;;;;;6.47;1.85;;;14.40;63.80;;;;;;4844713;29;20058;-74
2023/02/06 13:49:24;;;;;;;11.52;1.55;;;14.40;63.90;;;;;;4844507;29;20094;-74
2023/02/06 13:52:13;;;;;;;9.30;1.83;;;14.30;63.90;;;;;;4845048;29;20046;-74
2023/02/06 13:54:50;;;;;;;9.40;1.55;;;14.40;64.00;;;;;;4844401;29;20050;-74
2023/02/06 13:57:22;;;;;;;9.25;1.73;;;14.40;64.10;;;;;;4844362;29;20050;-75
2023/02/06 14:00:00;;;;;;;6.80;1.67;;;14.40;64.10;;;;;;4844308;29;20049;-74
2023/02/06 14:02:36;;;;;;;8.25;2.17;;;14.30;64.20;;;;;;4844381;29;20054;-75
2023/02/06 14:05:05;;;;;;;7.07;1.40;;;14.30;64.20;;;;;;4844044;29;20102;-74
2023/02/06 14:07:34;;;;;;;8.07;1.75;;;14.30;64.30;;;;;;4843214;29;20057;-75
2023/02/06 14:13:24;;;;;;;6.25;1.50;;;14.30;65.00;;;;;;4843616;29;20065;-74
2023/02/06 14:15:53;;;;;;;5.77;1.30;;;14.30;64.50;;;;;;4844015;29;20058;-74
2023/02/06 14:18:37;;;;;;;12.43;2.15;;;14.30;64.50;;;;;;4844221;29;20053;-73
2023/02/06 14:21:19;;;;;;;4.22;1.27;;;14.30;64.60;;;;;;4844063;29;20125;-74
2023/02/06 14:24:00;;;;;;;6.15;1.38;;;14.30;64.60;;;;;;4842988;29;20058;-74
2023/02/06 14:26:46;;;;;;;6.97;1.70;;;14.30;64.70;;;;;;4843946;29;20145;-75
2023/02/06 14:29:38;;;;;;;10.07;1.90;;;14.30;64.70;;;;;;4844209;29;20068;-74
2023/02/06 14:32:10;;;;;;;5.88;1.52;;;14.20;64.70;;;;;;4844330;29;20050;-74
2023/02/06 14:35:02;;;;;;;15.50;2.60;;;14.20;64.80;;;;;;4842661;29;20485;-71
2023/02/06 14:37:55;;;;;;;7.13;1.95;;;14.20;64.90;;;;;;4827300;29;20158;-75
2023/02/06 14:40:23;;;;;;;16.73;2.10;;;14.20;64.90;;;;;;4843668;29;20065;-73
2023/02/06 14:42:50;;;;;;;15.25;2.30;;;14.20;65.10;;;;;;4833180;29;20104;-77
2023/02/06 14:45:32;;;;;;;11.55;1.90;;;14.20;65.60;;;;;;4847965;29;20098;-76
2023/02/06 14:48:00;;;;;;;15.75;2.10;;;14.30;66.00;;;;;;4830419;29;20065;-76
2023/02/06 14:50:34;;;;;;;13.45;1.88;;;14.20;66.00;;;;;;4847235;29;20054;-75
2023/02/06 14:53:06;;;;;;;12.70;1.73;;;14.30;66.30;;;;;;4847129;29;20065;-76
2023/02/06 14:55:38;;;;;;;13.05;2.08;;;14.30;66.40;;;;;;4855070;29;20045;-78
2023/02/06 14:58:06;;;;;;;14.90;2.63;;;14.30;66.50;;;;;;4863460;29;20041;-75
2023/02/06 15:00:32;;;;;;;13.18;2.00;;;14.30;66.70;;;;;;4847344;29;20428;-75
2023/02/06 15:03:14;;;;;;;21.92;3.33;;;14.30;66.60;;;;;;4847143;29;20089;-77
2023/02/06 15:05:40;;;;;;;18.55;2.50;;;14.40;67.00;;;;;;4846751;29;20053;-78
2023/02/06 15:08:21;;;;;;;26.00;2.88;;;14.60;66.70;;;;;;4852875;29;20046;-77
2023/02/06 15:10:55;;;;;;;25.33;3.05;;;14.70;66.60;;;;;;4852350;29;20060;-78
2023/02/06 15:13:23;;;;;;;16.35;2.42;;;14.90;66.40;;;;;;4846986;29;20064;-80
2023/02/06 15:15:53;;;;;;;15.63;2.00;;;15.10;66.40;;;;;;4846261;29;20046;-77
2023/02/06 15:18:20;;;;;;;13.73;2.25;;;15.10;66.40;;;;;;4846951;29;20093;-77
2023/02/06 15:21:04;;;;;;;13.27;1.85;;;15.20;66.40;;;;;;4860392;29;20061;-77
2023/02/06 15:23:33;;;;;;;;;;;15.30;66.50;;;;;;4865829;29;20057;-79
2023/02/06 15:26:01;;;;;;;18.60;2.13;;;15.40;66.80;;;;;;4851063;29;19935;-78
2023/02/06 15:28:30;;;;;;;25.25;2.80;;;15.40;66.70;;;;;;4830200;29;20062;-79
2023/02/06 15:30:58;;;;;;;21.05;3.58;;;15.50;66.90;;;;;;4847055;29;20064;-79
2023/02/06 15:33:30;;;;;;;22.77;3.78;;;15.50;66.90;;;;;;4846123;29;20065;-78
2023/02/06 15:35:58;;;;;;;30.40;3.85;;;15.50;67.10;;;;;;4846924;29;20060;-79
2023/02/06 15:38:27;;;;;;;23.60;2.53;;;15.50;67.10;;;;;;4846558;29;20050;-80
2023/02/06 15:40:58;;;;;;;21.80;2.97;;;15.60;67.10;;;;;;4829711;29;20128;-76
2023/02/06 15:43:25;;;;;;;26.10;3.00;;;15.60;67.40;;;;;;4845877;29;20098;-77
2023/02/06 15:45:57;;;;;;;15.85;2.33;;;15.70;67.50;;;;;;4845389;29;20054;-78
2023/02/06 15:48:38;;;;;;;21.23;2.70;;;15.80;68.10;;;;;;4830230;29;20122;-78
2023/02/06 15:51:22;;;;;;;14.00;2.10;;;15.90;69.00;;;;;;4846496;29;20058;-81
2023/02/06 15:53:49;;;;;;;12.40;2.97;;;16.00;69.00;;;;;;4836932;29;20049;-77
2023/02/06 15:56:32;;;;;;;20.30;2.05;;;16.00;69.00;;;;;;4864137;29;20068;-79
2023/02/06 15:59:00;;;;;;;17.45;1.80;;;16.10;69.30;;;;;;4864247;29;20240;-77
2023/02/06 16:01:29;;;;;;;17.30;2.47;;;16.10;69.20;;;;;;4846799;29;20500;-78
2023/02/06 16:04:01;;;;;;;16.73;2.83;;;16.20;69.30;;;;;;4845898;29;20042;-76
2023/02/06 16:06:27;;;;;;;16.45;2.35;;;16.20;69.30;;;;;;4850801;29;20033;-76
2023/02/06 16:09:05;;;;;;;16.45;2.13;;;16.20;69.20;;;;;;4863839;29;20057;-74
2023/02/06 16:11:49;;;;;;;15.65;2.60;;;16.20;69.30;;;;;;4835047;29;20053;-77
2023/02/06 16:14:35;;;;;;;15.10;2.60;;;16.20;69.20;;;;;;4829448;29;20095;-77
2023/02/06 16:17:12;;;;;;;25.45;2.90;;;16.20;69.30;;;;;;4845600;29;20125;-77
2023/02/06 16:19:47;;;;;;;15.25;2.35;;;16.20;69.20;;;;;;4845808;29;20053;-77
2023/02/06 16:22:26;;;;;;;17.13;2.97;;;16.20;69.30;;;;;;4845640;29;20056;-78
2023/02/06 16:24:55;;;;;;;21.42;2.63;;;16.20;69.30;;;;;;4845144;29;20050;-76
2023/02/06 16:27:26;;;;;;;20.95;2.58;;;16.10;69.50;;;;;;4844984;29;20058;-77
2023/02/06 16:29:56;;;;;;;18.55;2.97;;;16.00;69.50;;;;;;4845333;29;20050;-75
2023/02/06 16:32:26;;;;;;;20.23;3.08;;;16.00;69.80;;;;;;4845100;29;20060;-77
2023/02/06 16:34:52;;;;;;;16.13;2.70;;;15.90;69.80;;;;;;4845657;29;20172;-77
2023/02/06 16:37:27;;;;;;;17.60;2.42;;;15.90;69.80;;;;;;4859275;29;20466;-73
2023/02/06 16:39:54;;;;;;;19.75;2.65;;;15.90;70.00;;;;;;4844805;29;20125;-78
2023/02/06 16:42:33;;;;;;;16.83;2.70;;;15.90;69.90;;;;;;4844711;29;20125;-82
2023/02/06 16:45:04;;;;;;;24.88;3.75;;;15.90;69.80;;;;;;4844816;29;20067;-78
2023/02/06 16:47:30;;;;;;;16.75;2.88;;;15.90;69.70;;;;;;4846831;29;20030;-75
2023/02/06 16:49:56;;;;;;;18.02;3.50;;;15.90;69.70;;;;;;4838488;29;20046;-76
2023/02/06 16:52:28;;;;;;;14.27;2.70;;;15.90;69.40;;;;;;4844714;29;20378;-74
2023/02/06 16:54:57;;;;;;;16.75;2.92;;;15.80;68.30;;;;;;4829060;29;20421;-77
2023/02/06 16:57:36;;;;;;;17.23;2.90;;;15.80;67.70;;;;;;4845013;29;20444;-79
2023/02/06 17:00:18;;;;;;;14.25;2.20;;;15.70;67.40;;;;;;4844972;29;20049;-77
2023/02/06 17:02:46;;;;;;;18.80;3.40;;;15.70;67.50;;;;;;4828624;29;20128;-78
2023/02/06 17:05:14;;;;;;;15.07;2.58;;;15.70;68.00;;;;;;4846472;29;20060;-79
2023/02/06 17:07:41;;;;;;;16.40;3.10;;;15.70;67.90;;;;;;4843948;29;20057;-78
2023/02/06 17:10:07;;;;;;;14.52;2.53;;;15.70;68.10;;;;;;4828299;29;20070;-80
2023/02/06 17:12:33;;;;;;;12.77;2.30;;;15.60;68.30;;;;;;4845044;29;20046;-74
2023/02/06 17:14:59;;;;;;;22.55;3.63;;;15.60;68.60;;;;;;4853537;29;20072;-76
2023/02/06 17:17:25;;;;;;;17.17;3.05;;;15.50;68.50;;;;;;4853254;29;20049;-71
2023/02/06 17:19:52;;;;;;;13.25;2.40;;;15.60;68.40;;;;;;4855833;29;20118;-71
2023/02/06 17:22:18;;;;;;;14.60;2.88;;;15.50;67.70;;;;;;4837959;29;20136;-72
2023/02/06 17:24:44;;;;;;;18.67;3.17;;;15.50;67.30;;;;;;4844003;29;20057;-71
2023/02/06 17:27:17;;;;;;;25.77;3.60;;;15.40;67.00;;;;;;4840552;29;20064;-71
2023/02/06 17:29:43;;;;;;;28.13;3.20;;;15.40;66.90;;;;;;4844769;29;20057;-72
2023/02/06 17:32:09;;;;;;;16.02;2.53;;;15.30;66.90;;;;;;4843944;29;20046;-71